• Join FlightAware (Why Join?)
  • Login
  • US Flag 
08:27PM EDT


 

Airport Tracker/Info


-or-


 

Live Flight TrackerFlight Track Log ✈ N682RW ✈ 27-Apr-2013 ✈ KDAL - KDTW

Flight Track Log - Related Links

Times and Time Zones

All times are in EDT time to prevent confusion due to time zone crossing. See the N682RW flight status page for this flight to view local times or setup timezone preferences in your user account.

Time Position Orientation Groundspeed Altitude Reporting Facility
EDT Latitude Longitude Course Direction KTS MPH feet Rate Location/Type
11:14PM 32.9000 -96.9167 73° East 254 292 3,400  Level Dallas / Fort Worth TRACON
11:15PM 32.9667 -96.9000 12° North 282 325 6,200 1,860 Climbing Dallas / Fort Worth TRACON
11:18PM 33.1320 -96.7006 69° East  Level Estimated
11:19PM 33.0520 -96.3756 73° East  Level FlightAware Approximate
11:25PM 33.7382 -95.9593 66° East  Level Estimated
11:26PM 33.8244 -95.8525 73° East  Level Estimated
11:27PM 33.9106 -95.7456 73° East  Level Estimated
11:28PM 33.8420 -95.6215 124° Southeast  Level FlightAware Approximate
11:29PM 33.7733 -95.4977 124° Southeast  Level FlightAware Approximate
11:29PM 33.5281 -94.8003 104° East 538 619 33,000  Level Memphis Center
11:30PM 33.8608 -95.3924 70° East  Level Estimated
11:30PM 33.5736 -94.6356 72° East 539 620 34,000  Level Memphis Center
11:31PM 33.7915 -95.2689 124° Southeast  Level FlightAware Approximate
11:31PM 33.6208 -94.4708 71° East 534 615 34,900  Level Memphis Center
11:32PM 33.8797 -95.1644 71° East  Level Estimated
11:32PM 33.6658 -94.3056 72° East 528 608 35,000  Level Memphis Center
11:33PM 33.8507 -95.0195 103° East  Level FlightAware Approximate
11:33PM 33.7269 -94.1486 65° Northeast 522 601 35,000  Level Memphis Center
11:34PM 33.8216 -94.8747 104° East  Level FlightAware Approximate
11:34PM 33.8125 -94.0122 53° Northeast 505 581 35,000  Level Memphis Center
11:35PM 33.7923 -94.7300 104° East  Level FlightAware Approximate
11:35PM 33.9347 -93.9022 37° Northeast 500 575 35,000  Level Memphis Center
11:36PM 34.0442 -93.7889 41° Northeast 494 568 35,000  Level Memphis Center
11:37PM 34.1517 -93.6703 42° Northeast 505 581 35,000  Level Memphis Center
11:38PM 34.2614 -93.5539 41° Northeast 510 587 35,000  Level Memphis Center
11:39PM 34.3644 -93.4369 43° Northeast 510 587 35,000  Level Memphis Center
11:40PM 34.4694 -93.3172 43° Northeast 510 587 35,000  Level Memphis Center
11:41PM 34.5744 -93.2022 42° Northeast 510 587 35,000  Level Memphis Center
11:42PM 34.6792 -93.0897 41° Northeast 505 581 35,000  Level Memphis Center
11:43PM 34.7817 -92.9767 42° Northeast 500 575 35,000  Level Memphis Center
11:44PM 34.8842 -92.8608 43° Northeast 500 575 35,000  Level Memphis Center
11:45PM 34.9867 -92.7447 43° Northeast 500 575 35,000  Level Memphis Center
11:46PM 35.0911 -92.6283 42° Northeast 500 575 35,000  Level Memphis Center
11:47PM 35.1953 -92.5117 42° Northeast 500 575 35,000  Level Memphis Center
11:48PM 35.3017 -92.3925 42° Northeast 500 575 35,000  Level Memphis Center
11:49PM 35.4036 -92.2778 43° Northeast 500 575 35,000  Level Memphis Center
11:50PM 35.5075 -92.1603 43° Northeast 500 575 35,000  Level Memphis Center
11:51PM 35.6031 -92.0500 43° Northeast 506 582 35,000  Level Memphis Center
11:52PM 35.7067 -91.9344 42° Northeast 501 577 35,000  Level Memphis Center
11:53PM 35.8083 -91.8136 44° Northeast 501 577 35,000  Level Memphis Center
11:54PM 35.9097 -91.6975 43° Northeast 501 577 35,000  Level Memphis Center
11:55PM 36.0067 -91.5808 44° Northeast 494 568 35,000  Level Memphis Center
11:56PM 36.1078 -91.4617 44° Northeast 494 568 35,000  Level Memphis Center
11:57PM 36.2111 -91.3472 42° Northeast 489 563 35,000  Level Memphis Center
11:58PM 36.3119 -91.2300 43° Northeast 494 568 35,000  Level Memphis Center
11:59PM 36.4086 -91.1150 44° Northeast 494 568 35,000  Level Memphis Center
12:00AM 36.5072 -90.9947 44° Northeast 488 562 35,000  Level Memphis Center
12:01AM 36.6100 -90.8792 42° Northeast 488 562 35,000  Level Memphis Center
12:02AM 36.7083 -90.7606 44° Northeast 488 562 35,000  Level Memphis Center
12:03AM 36.8067 -90.6394 45° Northeast 488 562 35,000  Level Memphis Center
12:06AM 37.0517 -90.3461 44° Northeast 496 571 35,000  Level Kansas City Center
12:07AM 37.1519 -90.2242 44° Northeast 498 573 35,000  Level Kansas City Center
12:08AM 37.2508 -90.1031 44° Northeast 496 571 35,000  Level Kansas City Center
12:09AM 37.3492 -89.9839 44° Northeast 493 567 35,000  Level Kansas City Center
12:10AM 37.4450 -89.8650 45° Northeast 489 563 35,000  Level Kansas City Center
12:11AM 37.5433 -89.7458 44° Northeast 488 562 35,000  Level Kansas City Center
12:12AM 37.6386 -89.6281 44° Northeast 488 562 35,000  Level Kansas City Center
12:13AM 37.7356 -89.5081 44° Northeast 489 563 35,000  Level Kansas City Center
12:14AM 37.8311 -89.3883 45° Northeast 488 562 35,000  Level Kansas City Center
12:15AM 37.9306 -89.2650 44° Northeast 493 567 35,000  Level Kansas City Center
12:16AM 38.0261 -89.1458 44° Northeast 487 560 35,000  Level Kansas City Center
12:17AM 38.1197 -89.0264 45° Northeast 487 560 35,000  Level Kansas City Center
12:18AM 38.2158 -88.9042 45° Northeast 489 563 35,000  Level Kansas City Center
12:19AM 38.3114 -88.7811 45° Northeast 491 565 35,000  Level Kansas City Center
12:20AM 38.4097 -88.6586 44° Northeast 496 571 35,000  Level Kansas City Center
12:21AM 38.5078 -88.5336 45° Northeast 495 570 35,000  Level Kansas City Center
12:22AM 38.6075 -88.4056 45° Northeast 498 573 35,000  Level Kansas City Center
12:23AM 38.7094 -88.2731 45° Northeast 509 586 35,000  Level Kansas City Center
12:24AM 38.8103 -88.1422 45° Northeast 511 588 35,000  Level Kansas City Center
12:25AM 38.9097 -88.0128 45° Northeast 513 590 35,000  Level Indianapolis Center
12:26AM 39.0111 -87.8806 45° Northeast 516 594 35,000  Level Indianapolis Center
12:27AM 39.1114 -87.7475 46° Northeast 515 593 35,000  Level Indianapolis Center
12:28AM 39.2136 -87.6150 45° Northeast 517 595 35,000  Level Indianapolis Center
12:29AM 39.3061 -87.4939 45° Northeast 518 596 35,000  Level Indianapolis Center
12:30AM 39.4058 -87.3592 46° Northeast 515 593 35,000  Level Indianapolis Center
12:31AM 39.5067 -87.2258 46° Northeast 515 593 35,000  Level Indianapolis Center
12:32AM 39.6067 -87.0908 46° Northeast 514 592 35,000  Level Indianapolis Center
12:33AM 39.7078 -86.9547 46° Northeast 518 596 35,000  Level Indianapolis Center
12:34AM 39.8081 -86.8186 46° Northeast 515 593 35,000  Level Indianapolis Center
12:35AM 39.9100 -86.6814 46° Northeast 520 598 35,000  Level Indianapolis Center
12:36AM 40.0128 -86.5422 46° Northeast 523 602 35,000  Level Indianapolis Center
12:37AM 40.1128 -86.4017 47° Northeast 522 601 35,000  Level Indianapolis Center
12:37AM 40.1644 -86.3333 45° Northeast 522 601 35,000  Level Chicago Center
12:38AM 40.2658 -86.1931 47° Northeast 524 603 35,000  Level Chicago Center
12:39AM 40.3506 -86.0750 47° Northeast 527 606 35,000  Level Chicago Center
12:40AM 40.4525 -85.9336 47° Northeast 530 610 35,000  Level Chicago Center
12:41AM 40.5536 -85.7900 47° Northeast 532 612 35,000  Level Chicago Center
12:42AM 40.6553 -85.6464 47° Northeast 532 612 35,000  Level Chicago Center
12:43AM 40.7519 -85.5106 47° Northeast 528 608 35,000  Level Chicago Center
12:44AM 40.8514 -85.3675 47° Northeast 531 611 35,000 -540 Level Chicago Center
12:45AM 40.9511 -85.2206 48° Northeast 538 619 34,000 -1,500 Descending Chicago Center
12:46AM 41.0494 -85.0803 47° Northeast 531 611 32,000 -2,160 Descending Chicago Center
12:47AM 41.1656 -84.9136 47° Northeast 519 597 29,700 -2,160 Descending Chicago Center
12:48AM 41.2558 -84.7814 48° Northeast 494 568 27,700 -2,220 Descending Chicago Center
12:49AM 41.3411 -84.6556 48° Northeast 466 536 25,300 -2,400 Descending Chicago Center
12:50AM 41.3961 -84.5778 47° Northeast 464 534 23,800 -2,460 Descending Cleveland Center
12:51AM 41.4775 -84.4581 48° Northeast 446 513 21,300 -2,520 Descending Cleveland Center
12:52AM 41.5564 -84.3433 47° Northeast 432 497 18,800 -2,520 Descending Cleveland Center
12:53AM 41.6267 -84.2336 49° Northeast 419 482 16,300 -2,520 Descending Cleveland Center
12:54AM 41.6681 -84.1747 47° Northeast 393 452 15,000 -2,520 Descending Cleveland Center
12:54AM 41.7008 -84.1236 49° Northeast 398 458 13,800 -2,460 Descending Cleveland Center
12:55AM 41.7467 -84.0622 45° Northeast 382 440 12,300 -2,100 Descending Cleveland Center
12:55AM 41.7708 -84.0189 53° Northeast 388 447 11,700 -1,320 Descending Cleveland Center
12:56AM 41.8122 -83.9600 47° Northeast 365 420 11,000 -720 Descending Cleveland Center
12:56AM 41.8364 -83.9194 51° Northeast 375 432 11,000  Level Cleveland Center
12:57AM 41.8842 -83.8550 45° Northeast 361 415 11,000  Level Cleveland Center
12:57AM 41.9058 -83.8225 48° Northeast 363 418 11,000  Level Cleveland Center
12:58AM 41.9678 -83.7725 31° Northeast 368 423 11,000  Level Cleveland Center
12:58AM 41.9933 -83.7514 32° Northeast 357 411 11,000  Level Cleveland Center
12:59AM 42.0550 -83.7042 30° Northeast 369 425 11,000  Level Cleveland Center
12:59AM 42.0828 -83.6806 32° Northeast 362 417 11,000  Level Cleveland Center
01:00AM 42.1444 -83.6358 28° Northeast 369 425 11,000  Level Cleveland Center
01:00AM 42.1508 -83.6306 31° Northeast 362 417 11,000 -840 Level Cleveland Center
01:01AM 42.2253 -83.5753 29° Northeast 306 352 10,200 -1,620 Descending Cleveland Center
01:01AM 42.2464 -83.5622 25° Northeast 337 388 9,400 -2,400 Descending Cleveland Center
01:02AM 42.2953 -83.5250 29° Northeast 285 328 7,800 -2,040 Descending Cleveland Center
01:02AM 42.3081 -83.5144 31° Northeast 301 346 7,400 -2,220 Descending Cleveland Center
01:03AM 42.3656 -83.4694 30° Northeast 259 298 5,600 -2,040 Descending Cleveland Center
01:03AM 42.3681 -83.4553 77° East 271 312 5,400 -1,500 Descending Cleveland Center
01:04AM 42.3592 -83.3961 101° East 186 214 4,100 -1,440 Descending Cleveland Center
01:05AM 42.3272 -83.3356 125° Southeast 196 226 3,000 -840 Descending Cleveland Center
01:06AM 42.2908 -83.2919 138° Southeast 163 188 2,500 -780 Descending Cleveland Center
01:07AM 42.2528 -83.3100 199° South 149 171 1,500 -1,020 Descending Cleveland Center